sensor_id;sensor_type;location;lat;lon;timestamp;P1;durP1;ratioP1;P2;durP2;ratioP2
41305;SDS011;27051;50.376;19.152;2023-05-03T00:02:27;23.60;;;12.80;;
41305;SDS011;27051;50.376;19.152;2023-05-03T00:04:54;24.20;;;12.30;;
41305;SDS011;27051;50.376;19.152;2023-05-03T00:07:21;20.10;;;11.80;;
41305;SDS011;27051;50.376;19.152;2023-05-03T00:09:49;20.40;;;12.00;;
41305;SDS011;27051;50.376;19.152;2023-05-03T00:12:16;21.00;;;12.10;;
41305;SDS011;27051;50.376;19.152;2023-05-03T00:14:44;23.70;;;13.00;;
41305;SDS011;27051;50.376;19.152;2023-05-03T00:17:11;23.40;;;13.20;;
41305;SDS011;27051;50.376;19.152;2023-05-03T00:19:38;20.90;;;12.30;;
41305;SDS011;27051;50.376;19.152;2023-05-03T00:22:05;21.40;;;12.50;;
41305;SDS011;27051;50.376;19.152;2023-05-03T00:24:33;24.10;;;13.30;;
41305;SDS011;27051;50.376;19.152;2023-05-03T00:27:00;21.60;;;13.40;;
41305;SDS011;27051;50.376;19.152;2023-05-03T00:29:29;23.70;;;14.20;;
41305;SDS011;27051;50.376;19.152;2023-05-03T00:31:57;23.60;;;13.70;;
41305;SDS011;27051;50.376;19.152;2023-05-03T00:34:24;24.00;;;15.00;;
41305;SDS011;27051;50.376;19.152;2023-05-03T00:36:52;25.70;;;13.90;;
41305;SDS011;27051;50.376;19.152;2023-05-03T00:39:20;24.50;;;15.60;;
41305;SDS011;27051;50.376;19.152;2023-05-03T00:41:47;24.20;;;15.20;;
41305;SDS011;27051;50.376;19.152;2023-05-03T00:44:15;24.10;;;15.00;;
41305;SDS011;27051;50.376;19.152;2023-05-03T00:46:42;24.90;;;15.10;;
41305;SDS011;27051;50.376;19.152;2023-05-03T00:49:09;23.80;;;15.10;;
41305;SDS011;27051;50.376;19.152;2023-05-03T00:51:37;25.70;;;15.30;;
41305;SDS011;27051;50.376;19.152;2023-05-03T00:54:04;24.40;;;15.60;;
41305;SDS011;27051;50.376;19.152;2023-05-03T00:56:31;25.90;;;16.50;;
41305;SDS011;27051;50.376;19.152;2023-05-03T00:58:59;25.60;;;16.40;;
41305;SDS011;27051;50.376;19.152;2023-05-03T01:01:27;28.30;;;18.20;;
41305;SDS011;27051;50.376;19.152;2023-05-03T01:03:55;32.80;;;20.30;;
41305;SDS011;27051;50.376;19.152;2023-05-03T01:06:31;29.50;;;18.70;;
41305;SDS011;27051;50.376;19.152;2023-05-03T01:09:14;29.80;;;18.50;;
41305;SDS011;27051;50.376;19.152;2023-05-03T01:11:52;29.10;;;17.90;;
41305;SDS011;27051;50.376;19.152;2023-05-03T01:15:32;29.80;;;18.60;;
41305;SDS011;27051;50.376;19.152;2023-05-03T01:17:35;32.20;;;20.60;;
41305;SDS011;27051;50.376;19.152;2023-05-03T01:20:09;36.00;;;21.60;;
41305;SDS011;27051;50.376;19.152;2023-05-03T01:22:49;29.80;;;18.70;;
41305;SDS011;27051;50.376;19.152;2023-05-03T01:25:24;29.60;;;17.60;;
41305;SDS011;27051;50.376;19.152;2023-05-03T01:27:51;28.20;;;18.10;;
41305;SDS011;27051;50.376;19.152;2023-05-03T01:30:18;29.40;;;19.40;;
41305;SDS011;27051;50.376;19.152;2023-05-03T01:33:02;31.10;;;19.40;;
41305;SDS011;27051;50.376;19.152;2023-05-03T01:35:52;29.70;;;19.20;;
41305;SDS011;27051;50.376;19.152;2023-05-03T01:38:23;32.90;;;20.50;;
41305;SDS011;27051;50.376;19.152;2023-05-03T01:40:53;29.70;;;19.50;;
41305;SDS011;27051;50.376;19.152;2023-05-03T01:43:23;29.90;;;18.90;;
41305;SDS011;27051;50.376;19.152;2023-05-03T01:45:54;29.40;;;18.90;;
41305;SDS011;27051;50.376;19.152;2023-05-03T01:48:21;29.50;;;18.80;;
41305;SDS011;27051;50.376;19.152;2023-05-03T01:50:48;26.60;;;17.30;;
41305;SDS011;27051;50.376;19.152;2023-05-03T01:53:15;29.10;;;19.30;;
41305;SDS011;27051;50.376;19.152;2023-05-03T01:55:41;31.00;;;19.20;;
41305;SDS011;27051;50.376;19.152;2023-05-03T01:58:08;33.80;;;21.00;;
41305;SDS011;27051;50.376;19.152;2023-05-03T02:00:36;32.90;;;20.20;;
41305;SDS011;27051;50.376;19.152;2023-05-03T02:03:03;35.70;;;21.20;;
41305;SDS011;27051;50.376;19.152;2023-05-03T02:05:30;34.80;;;20.70;;
41305;SDS011;27051;50.376;19.152;2023-05-03T02:07:57;34.10;;;21.90;;
41305;SDS011;27051;50.376;19.152;2023-05-03T02:10:24;31.50;;;21.10;;
41305;SDS011;27051;50.376;19.152;2023-05-03T02:12:53;34.40;;;21.60;;
41305;SDS011;27051;50.376;19.152;2023-05-03T02:15:20;33.30;;;20.40;;
41305;SDS011;27051;50.376;19.152;2023-05-03T02:17:47;31.10;;;20.10;;
41305;SDS011;27051;50.376;19.152;2023-05-03T02:20:14;33.60;;;19.80;;
41305;SDS011;27051;50.376;19.152;2023-05-03T02:22:41;35.30;;;22.00;;
41305;SDS011;27051;50.376;19.152;2023-05-03T02:25:08;33.20;;;20.50;;
41305;SDS011;27051;50.376;19.152;2023-05-03T02:27:35;29.40;;;18.90;;
41305;SDS011;27051;50.376;19.152;2023-05-03T02:30:02;28.10;;;16.80;;
41305;SDS011;27051;50.376;19.152;2023-05-03T02:32:29;32.70;;;18.70;;
41305;SDS011;27051;50.376;19.152;2023-05-03T02:34:57;25.40;;;16.40;;
41305;SDS011;27051;50.376;19.152;2023-05-03T02:37:24;28.60;;;18.10;;
41305;SDS011;27051;50.376;19.152;2023-05-03T02:39:50;27.80;;;17.70;;
41305;SDS011;27051;50.376;19.152;2023-05-03T02:42:18;26.10;;;16.70;;
41305;SDS011;27051;50.376;19.152;2023-05-03T02:44:47;29.60;;;17.50;;
41305;SDS011;27051;50.376;19.152;2023-05-03T02:47:14;26.70;;;16.70;;
41305;SDS011;27051;50.376;19.152;2023-05-03T02:49:44;25.70;;;16.20;;
41305;SDS011;27051;50.376;19.152;2023-05-03T02:52:11;25.20;;;16.00;;
41305;SDS011;27051;50.376;19.152;2023-05-03T02:54:39;25.00;;;16.10;;
41305;SDS011;27051;50.376;19.152;2023-05-03T02:57:06;25.50;;;17.50;;
41305;SDS011;27051;50.376;19.152;2023-05-03T02:59:34;26.60;;;16.60;;
41305;SDS011;27051;50.376;19.152;2023-05-03T03:02:01;25.40;;;17.00;;
41305;SDS011;27051;50.376;19.152;2023-05-03T03:04:32;26.20;;;16.50;;
41305;SDS011;27051;50.376;19.152;2023-05-03T03:06:59;27.60;;;16.00;;
41305;SDS011;27051;50.376;19.152;2023-05-03T03:09:27;24.30;;;15.90;;
41305;SDS011;27051;50.376;19.152;2023-05-03T03:11:54;26.30;;;16.00;;
41305;SDS011;27051;50.376;19.152;2023-05-03T03:14:21;26.40;;;16.80;;
41305;SDS011;27051;50.376;19.152;2023-05-03T03:16:50;24.40;;;15.50;;
41305;SDS011;27051;50.376;19.152;2023-05-03T03:19:19;26.70;;;15.30;;
41305;SDS011;27051;50.376;19.152;2023-05-03T03:21:45;24.80;;;16.90;;
41305;SDS011;27051;50.376;19.152;2023-05-03T03:24:14;27.70;;;16.80;;
41305;SDS011;27051;50.376;19.152;2023-05-03T03:26:41;22.70;;;14.30;;
41305;SDS011;27051;50.376;19.152;2023-05-03T03:29:10;26.40;;;16.10;;
41305;SDS011;27051;50.376;19.152;2023-05-03T03:31:38;26.20;;;17.30;;
41305;SDS011;27051;50.376;19.152;2023-05-03T03:34:05;25.20;;;16.90;;
41305;SDS011;27051;50.376;19.152;2023-05-03T03:36:34;26.90;;;16.70;;
41305;SDS011;27051;50.376;19.152;2023-05-03T03:39:02;27.40;;;15.90;;
41305;SDS011;27051;50.376;19.152;2023-05-03T03:41:30;25.20;;;15.20;;
41305;SDS011;27051;50.376;19.152;2023-05-03T03:43:58;26.40;;;16.00;;
41305;SDS011;27051;50.376;19.152;2023-05-03T03:46:25;24.80;;;14.60;;
41305;SDS011;27051;50.376;19.152;2023-05-03T03:48:53;26.00;;;15.90;;
41305;SDS011;27051;50.376;19.152;2023-05-03T03:51:20;27.20;;;15.50;;
41305;SDS011;27051;50.376;19.152;2023-05-03T03:53:48;22.30;;;15.10;;
41305;SDS011;27051;50.376;19.152;2023-05-03T03:56:18;25.20;;;14.80;;
41305;SDS011;27051;50.376;19.152;2023-05-03T03:58:46;27.40;;;15.60;;
41305;SDS011;27051;50.376;19.152;2023-05-03T04:01:14;26.50;;;15.90;;
41305;SDS011;27051;50.376;19.152;2023-05-03T04:03:45;23.50;;;15.20;;
41305;SDS011;27051;50.376;19.152;2023-05-03T04:06:12;25.50;;;15.80;;
41305;SDS011;27051;50.376;19.152;2023-05-03T04:08:39;27.20;;;16.10;;
41305;SDS011;27051;50.376;19.152;2023-05-03T04:11:09;25.30;;;15.80;;
41305;SDS011;27051;50.376;19.152;2023-05-03T04:13:38;26.80;;;17.10;;
41305;SDS011;27051;50.376;19.152;2023-05-03T04:16:06;25.70;;;16.30;;
41305;SDS011;27051;50.376;19.152;2023-05-03T04:18:33;27.60;;;16.70;;
41305;SDS011;27051;50.376;19.152;2023-05-03T04:21:01;26.50;;;16.50;;
41305;SDS011;27051;50.376;19.152;2023-05-03T04:23:29;29.10;;;18.00;;
41305;SDS011;27051;50.376;19.152;2023-05-03T04:25:56;29.40;;;17.20;;
41305;SDS011;27051;50.376;19.152;2023-05-03T04:28:27;29.20;;;16.90;;
41305;SDS011;27051;50.376;19.152;2023-05-03T04:30:54;27.60;;;16.30;;
41305;SDS011;27051;50.376;19.152;2023-05-03T04:33:21;27.70;;;16.00;;
41305;SDS011;27051;50.376;19.152;2023-05-03T04:35:48;26.90;;;16.20;;
41305;SDS011;27051;50.376;19.152;2023-05-03T04:38:15;25.00;;;15.60;;
41305;SDS011;27051;50.376;19.152;2023-05-03T04:40:43;27.10;;;16.30;;
41305;SDS011;27051;50.376;19.152;2023-05-03T04:43:12;26.70;;;15.40;;
41305;SDS011;27051;50.376;19.152;2023-05-03T04:45:39;25.90;;;14.80;;
41305;SDS011;27051;50.376;19.152;2023-05-03T04:48:08;24.10;;;14.90;;
41305;SDS011;27051;50.376;19.152;2023-05-03T04:50:37;23.70;;;13.40;;
41305;SDS011;27051;50.376;19.152;2023-05-03T04:53:05;26.70;;;13.40;;
41305;SDS011;27051;50.376;19.152;2023-05-03T04:55:31;21.80;;;11.70;;
41305;SDS011;27051;50.376;19.152;2023-05-03T04:57:59;23.80;;;12.50;;
41305;SDS011;27051;50.376;19.152;2023-05-03T05:00:27;22.90;;;11.70;;
41305;SDS011;27051;50.376;19.152;2023-05-03T05:02:54;20.90;;;11.10;;
41305;SDS011;27051;50.376;19.152;2023-05-03T05:05:20;20.60;;;11.00;;
41305;SDS011;27051;50.376;19.152;2023-05-03T05:07:47;25.90;;;10.80;;
41305;SDS011;27051;50.376;19.152;2023-05-03T05:10:16;19.80;;;10.20;;
41305;SDS011;27051;50.376;19.152;2023-05-03T05:12:43;21.80;;;11.10;;
41305;SDS011;27051;50.376;19.152;2023-05-03T05:15:11;21.10;;;10.40;;
41305;SDS011;27051;50.376;19.152;2023-05-03T05:17:40;23.10;;;11.20;;
41305;SDS011;27051;50.376;19.152;2023-05-03T05:20:07;19.60;;;10.90;;
41305;SDS011;27051;50.376;19.152;2023-05-03T05:22:34;25.70;;;12.20;;
41305;SDS011;27051;50.376;19.152;2023-05-03T05:25:00;20.70;;;11.20;;
41305;SDS011;27051;50.376;19.152;2023-05-03T05:27:27;19.80;;;10.90;;
41305;SDS011;27051;50.376;19.152;2023-05-03T05:29:54;21.10;;;11.10;;
41305;SDS011;27051;50.376;19.152;2023-05-03T05:32:24;20.20;;;11.30;;
41305;SDS011;27051;50.376;19.152;2023-05-03T05:34:51;19.80;;;11.00;;
41305;SDS011;27051;50.376;19.152;2023-05-03T05:37:19;21.40;;;10.40;;
41305;SDS011;27051;50.376;19.152;2023-05-03T05:39:47;20.60;;;11.00;;
41305;SDS011;27051;50.376;19.152;2023-05-03T05:42:14;19.90;;;10.20;;
41305;SDS011;27051;50.376;19.152;2023-05-03T05:44:41;19.80;;;9.70;;
41305;SDS011;27051;50.376;19.152;2023-05-03T05:47:08;20.00;;;10.40;;
41305;SDS011;27051;50.376;19.152;2023-05-03T05:49:35;18.30;;;9.10;;
41305;SDS011;27051;50.376;19.152;2023-05-03T05:52:01;15.80;;;8.90;;
41305;SDS011;27051;50.376;19.152;2023-05-03T05:54:29;17.90;;;8.40;;
41305;SDS011;27051;50.376;19.152;2023-05-03T05:56:56;16.30;;;7.90;;
41305;SDS011;27051;50.376;19.152;2023-05-03T05:59:26;16.70;;;8.30;;
41305;SDS011;27051;50.376;19.152;2023-05-03T06:01:57;18.30;;;7.30;;
41305;SDS011;27051;50.376;19.152;2023-05-03T06:04:24;16.00;;;7.20;;
41305;SDS011;27051;50.376;19.152;2023-05-03T06:06:51;18.10;;;8.50;;
41305;SDS011;27051;50.376;19.152;2023-05-03T06:09:18;14.50;;;7.60;;
41305;SDS011;27051;50.376;19.152;2023-05-03T06:11:44;14.80;;;7.10;;
41305;SDS011;27051;50.376;19.152;2023-05-03T06:14:11;13.50;;;7.10;;
41305;SDS011;27051;50.376;19.152;2023-05-03T06:16:38;10.50;;;5.80;;
41305;SDS011;27051;50.376;19.152;2023-05-03T06:19:05;15.80;;;6.80;;
41305;SDS011;27051;50.376;19.152;2023-05-03T06:21:31;12.00;;;6.50;;
41305;SDS011;27051;50.376;19.152;2023-05-03T06:23:59;13.40;;;7.10;;
41305;SDS011;27051;50.376;19.152;2023-05-03T06:26:26;12.80;;;6.90;;
41305;SDS011;27051;50.376;19.152;2023-05-03T06:28:54;17.90;;;7.60;;
41305;SDS011;27051;50.376;19.152;2023-05-03T06:31:20;15.90;;;7.30;;
41305;SDS011;27051;50.376;19.152;2023-05-03T06:33:48;14.10;;;7.10;;
41305;SDS011;27051;50.376;19.152;2023-05-03T06:36:16;15.00;;;6.60;;
41305;SDS011;27051;50.376;19.152;2023-05-03T06:38:43;14.00;;;6.80;;
41305;SDS011;27051;50.376;19.152;2023-05-03T06:41:10;12.70;;;6.40;;
41305;SDS011;27051;50.376;19.152;2023-05-03T06:43:38;17.20;;;7.20;;
41305;SDS011;27051;50.376;19.152;2023-05-03T06:46:04;12.10;;;6.30;;
41305;SDS011;27051;50.376;19.152;2023-05-03T06:48:31;13.70;;;6.30;;
41305;SDS011;27051;50.376;19.152;2023-05-03T06:50:58;16.20;;;7.90;;
41305;SDS011;27051;50.376;19.152;2023-05-03T06:53:26;20.20;;;11.30;;
41305;SDS011;27051;50.376;19.152;2023-05-03T06:55:52;18.50;;;7.60;;
41305;SDS011;27051;50.376;19.152;2023-05-03T06:58:19;18.90;;;8.20;;
41305;SDS011;27051;50.376;19.152;2023-05-03T07:00:50;15.80;;;6.80;;
41305;SDS011;27051;50.376;19.152;2023-05-03T07:03:18;16.30;;;7.10;;
41305;SDS011;27051;50.376;19.152;2023-05-03T07:05:45;12.30;;;6.70;;
41305;SDS011;27051;50.376;19.152;2023-05-03T07:08:15;12.20;;;5.10;;
41305;SDS011;27051;50.376;19.152;2023-05-03T07:10:42;10.10;;;4.50;;
41305;SDS011;27051;50.376;19.152;2023-05-03T07:13:08;9.70;;;5.10;;
41305;SDS011;27051;50.376;19.152;2023-05-03T07:15:35;12.60;;;5.30;;
41305;SDS011;27051;50.376;19.152;2023-05-03T07:18:02;14.60;;;4.60;;
41305;SDS011;27051;50.376;19.152;2023-05-03T07:20:28;9.00;;;4.70;;
41305;SDS011;27051;50.376;19.152;2023-05-03T07:22:55;10.90;;;4.40;;
41305;SDS011;27051;50.376;19.152;2023-05-03T07:25:22;31.80;;;16.20;;
41305;SDS011;27051;50.376;19.152;2023-05-03T07:27:49;13.90;;;5.00;;
41305;SDS011;27051;50.376;19.152;2023-05-03T07:30:15;10.60;;;4.10;;
41305;SDS011;27051;50.376;19.152;2023-05-03T07:32:42;17.90;;;6.00;;
41305;SDS011;27051;50.376;19.152;2023-05-03T07:35:09;11.10;;;4.80;;
41305;SDS011;27051;50.376;19.152;2023-05-03T07:37:35;14.80;;;6.50;;
41305;SDS011;27051;50.376;19.152;2023-05-03T07:40:02;12.90;;;4.60;;
41305;SDS011;27051;50.376;19.152;2023-05-03T07:42:29;7.50;;;4.50;;
41305;SDS011;27051;50.376;19.152;2023-05-03T07:44:56;11.30;;;4.90;;
41305;SDS011;27051;50.376;19.152;2023-05-03T07:47:22;12.80;;;5.00;;
41305;SDS011;27051;50.376;19.152;2023-05-03T07:49:49;16.20;;;6.10;;
41305;SDS011;27051;50.376;19.152;2023-05-03T07:52:19;11.90;;;5.30;;
41305;SDS011;27051;50.376;19.152;2023-05-03T07:54:46;14.10;;;6.50;;
41305;SDS011;27051;50.376;19.152;2023-05-03T07:57:12;12.30;;;5.30;;
41305;SDS011;27051;50.376;19.152;2023-05-03T07:59:41;12.20;;;5.40;;
41305;SDS011;27051;50.376;19.152;2023-05-03T08:02:08;11.80;;;6.30;;
41305;SDS011;27051;50.376;19.152;2023-05-03T08:04:34;12.10;;;5.60;;
41305;SDS011;27051;50.376;19.152;2023-05-03T08:07:01;14.50;;;6.10;;
41305;SDS011;27051;50.376;19.152;2023-05-03T08:09:28;10.40;;;4.80;;
41305;SDS011;27051;50.376;19.152;2023-05-03T08:11:55;12.50;;;5.80;;
41305;SDS011;27051;50.376;19.152;2023-05-03T08:14:22;11.90;;;4.90;;
41305;SDS011;27051;50.376;19.152;2023-05-03T08:16:49;12.60;;;4.80;;
41305;SDS011;27051;50.376;19.152;2023-05-03T08:19:15;13.80;;;5.70;;
41305;SDS011;27051;50.376;19.152;2023-05-03T08:21:42;11.40;;;5.50;;
41305;SDS011;27051;50.376;19.152;2023-05-03T08:24:08;10.20;;;5.00;;
41305;SDS011;27051;50.376;19.152;2023-05-03T08:26:35;17.80;;;5.20;;
41305;SDS011;27051;50.376;19.152;2023-05-03T08:29:02;10.10;;;4.40;;
41305;SDS011;27051;50.376;19.152;2023-05-03T08:31:28;11.40;;;5.20;;
41305;SDS011;27051;50.376;19.152;2023-05-03T08:33:55;10.80;;;5.00;;
41305;SDS011;27051;50.376;19.152;2023-05-03T08:36:22;8.30;;;4.90;;
41305;SDS011;27051;50.376;19.152;2023-05-03T08:38:48;11.20;;;4.20;;
41305;SDS011;27051;50.376;19.152;2023-05-03T08:43:53;8.80;;;4.70;;
41305;SDS011;27051;50.376;19.152;2023-05-03T08:46:21;11.60;;;5.20;;
41305;SDS011;27051;50.376;19.152;2023-05-03T08:48:48;11.80;;;6.00;;
41305;SDS011;27051;50.376;19.152;2023-05-03T08:51:17;14.30;;;5.80;;
41305;SDS011;27051;50.376;19.152;2023-05-03T08:53:45;10.90;;;5.70;;
41305;SDS011;27051;50.376;19.152;2023-05-03T08:56:15;12.70;;;6.00;;
41305;SDS011;27051;50.376;19.152;2023-05-03T08:58:49;9.70;;;5.40;;
41305;SDS011;27051;50.376;19.152;2023-05-03T09:01:16;11.90;;;5.40;;
41305;SDS011;27051;50.376;19.152;2023-05-03T09:03:47;12.90;;;5.30;;
41305;SDS011;27051;50.376;19.152;2023-05-03T09:06:22;15.30;;;5.40;;
41305;SDS011;27051;50.376;19.152;2023-05-03T09:08:50;12.10;;;5.30;;
41305;SDS011;27051;50.376;19.152;2023-05-03T09:11:21;12.00;;;4.90;;
41305;SDS011;27051;50.376;19.152;2023-05-03T09:13:49;14.90;;;6.00;;
41305;SDS011;27051;50.376;19.152;2023-05-03T09:16:26;10.50;;;5.30;;
41305;SDS011;27051;50.376;19.152;2023-05-03T09:18:56;11.50;;;5.20;;
41305;SDS011;27051;50.376;19.152;2023-05-03T09:21:27;16.60;;;4.70;;
41305;SDS011;27051;50.376;19.152;2023-05-03T09:23:54;13.80;;;5.60;;
41305;SDS011;27051;50.376;19.152;2023-05-03T09:26:31;13.60;;;5.30;;
41305;SDS011;27051;50.376;19.152;2023-05-03T09:29:00;12.70;;;6.00;;
41305;SDS011;27051;50.376;19.152;2023-05-03T09:31:29;11.80;;;5.80;;
41305;SDS011;27051;50.376;19.152;2023-05-03T09:33:57;16.90;;;7.20;;
41305;SDS011;27051;50.376;19.152;2023-05-03T09:36:24;10.40;;;5.50;;
41305;SDS011;27051;50.376;19.152;2023-05-03T09:38:51;18.80;;;10.40;;
41305;SDS011;27051;50.376;19.152;2023-05-03T09:41:28;21.30;;;10.50;;
41305;SDS011;27051;50.376;19.152;2023-05-03T09:43:56;19.60;;;11.30;;
41305;SDS011;27051;50.376;19.152;2023-05-03T09:46:23;21.20;;;9.10;;
41305;SDS011;27051;50.376;19.152;2023-05-03T09:48:49;18.00;;;7.80;;
41305;SDS011;27051;50.376;19.152;2023-05-03T09:51:16;11.40;;;5.70;;
41305;SDS011;27051;50.376;19.152;2023-05-03T09:53:44;12.50;;;6.60;;
41305;SDS011;27051;50.376;19.152;2023-05-03T09:56:11;17.30;;;10.10;;
41305;SDS011;27051;50.376;19.152;2023-05-03T09:58:41;13.40;;;6.40;;
41305;SDS011;27051;50.376;19.152;2023-05-03T10:01:08;14.90;;;7.20;;
41305;SDS011;27051;50.376;19.152;2023-05-03T10:03:38;16.90;;;9.40;;
41305;SDS011;27051;50.376;19.152;2023-05-03T10:06:18;27.00;;;12.20;;
41305;SDS011;27051;50.376;19.152;2023-05-03T10:11:42;14.10;;;5.70;;
41305;SDS011;27051;50.376;19.152;2023-05-03T10:14:14;15.10;;;7.50;;
41305;SDS011;27051;50.376;19.152;2023-05-03T10:16:43;23.20;;;10.40;;
41305;SDS011;27051;50.376;19.152;2023-05-03T10:19:23;16.40;;;7.10;;
41305;SDS011;27051;50.376;19.152;2023-05-03T10:22:07;18.90;;;7.80;;
41305;SDS011;27051;50.376;19.152;2023-05-03T10:24:35;21.90;;;9.70;;
41305;SDS011;27051;50.376;19.152;2023-05-03T10:27:20;20.20;;;10.00;;
41305;SDS011;27051;50.376;19.152;2023-05-03T10:29:49;16.80;;;6.70;;
41305;SDS011;27051;50.376;19.152;2023-05-03T10:35:03;15.10;;;7.40;;
41305;SDS011;27051;50.376;19.152;2023-05-03T10:37:32;12.00;;;6.40;;
41305;SDS011;27051;50.376;19.152;2023-05-03T10:42:38;29.80;;;12.10;;
41305;SDS011;27051;50.376;19.152;2023-05-03T10:45:08;20.00;;;8.40;;
41305;SDS011;27051;50.376;19.152;2023-05-03T10:50:38;13.30;;;6.90;;
41305;SDS011;27051;50.376;19.152;2023-05-03T10:53:05;20.00;;;7.20;;
41305;SDS011;27051;50.376;19.152;2023-05-03T10:55:32;17.30;;;6.80;;
41305;SDS011;27051;50.376;19.152;2023-05-03T10:58:00;11.60;;;5.90;;
41305;SDS011;27051;50.376;19.152;2023-05-03T11:00:36;14.70;;;6.00;;
41305;SDS011;27051;50.376;19.152;2023-05-03T11:03:12;15.10;;;6.20;;
41305;SDS011;27051;50.376;19.152;2023-05-03T11:05:56;11.80;;;6.30;;
41305;SDS011;27051;50.376;19.152;2023-05-03T11:08:23;12.30;;;5.90;;
41305;SDS011;27051;50.376;19.152;2023-05-03T11:10:57;16.10;;;7.70;;
41305;SDS011;27051;50.376;19.152;2023-05-03T11:13:25;16.40;;;6.20;;
41305;SDS011;27051;50.376;19.152;2023-05-03T11:15:53;12.90;;;6.10;;
41305;SDS011;27051;50.376;19.152;2023-05-03T11:18:20;13.10;;;6.30;;
41305;SDS011;27051;50.376;19.152;2023-05-03T11:20:48;15.80;;;6.70;;
41305;SDS011;27051;50.376;19.152;2023-05-03T11:23:15;21.00;;;9.50;;
41305;SDS011;27051;50.376;19.152;2023-05-03T11:25:41;75.60;;;42.00;;
41305;SDS011;27051;50.376;19.152;2023-05-03T11:28:08;23.70;;;10.70;;
41305;SDS011;27051;50.376;19.152;2023-05-03T11:30:35;13.50;;;6.80;;
41305;SDS011;27051;50.376;19.152;2023-05-03T11:33:01;14.10;;;6.70;;
41305;SDS011;27051;50.376;19.152;2023-05-03T11:35:29;16.60;;;8.00;;
41305;SDS011;27051;50.376;19.152;2023-05-03T11:37:56;16.00;;;6.70;;
41305;SDS011;27051;50.376;19.152;2023-05-03T11:40:23;18.10;;;7.00;;
41305;SDS011;27051;50.376;19.152;2023-05-03T11:45:17;19.00;;;8.50;;
41305;SDS011;27051;50.376;19.152;2023-05-03T11:47:46;13.90;;;7.00;;
41305;SDS011;27051;50.376;19.152;2023-05-03T11:50:13;14.50;;;7.00;;
41305;SDS011;27051;50.376;19.152;2023-05-03T11:52:39;15.60;;;7.20;;
41305;SDS011;27051;50.376;19.152;2023-05-03T11:55:06;12.00;;;6.60;;
41305;SDS011;27051;50.376;19.152;2023-05-03T11:57:34;15.10;;;8.00;;
41305;SDS011;27051;50.376;19.152;2023-05-03T12:00:08;15.70;;;7.80;;
41305;SDS011;27051;50.376;19.152;2023-05-03T12:02:39;14.90;;;7.10;;
41305;SDS011;27051;50.376;19.152;2023-05-03T12:05:07;17.20;;;7.40;;
41305;SDS011;27051;50.376;19.152;2023-05-03T12:07:35;21.50;;;9.50;;
41305;SDS011;27051;50.376;19.152;2023-05-03T12:10:17;16.80;;;8.30;;
41305;SDS011;27051;50.376;19.152;2023-05-03T12:12:54;13.30;;;6.80;;
41305;SDS011;27051;50.376;19.152;2023-05-03T12:15:32;17.50;;;6.60;;
41305;SDS011;27051;50.376;19.152;2023-05-03T12:18:01;15.60;;;7.80;;
41305;SDS011;27051;50.376;19.152;2023-05-03T12:20:29;17.30;;;6.40;;
41305;SDS011;27051;50.376;19.152;2023-05-03T12:23:00;14.50;;;6.50;;
41305;SDS011;27051;50.376;19.152;2023-05-03T12:25:28;12.50;;;7.40;;
41305;SDS011;27051;50.376;19.152;2023-05-03T12:27:56;13.70;;;6.20;;
41305;SDS011;27051;50.376;19.152;2023-05-03T12:30:25;17.30;;;6.40;;
41305;SDS011;27051;50.376;19.152;2023-05-03T12:32:52;12.20;;;5.80;;
41305;SDS011;27051;50.376;19.152;2023-05-03T12:35:19;16.80;;;6.80;;
41305;SDS011;27051;50.376;19.152;2023-05-03T12:37:47;17.20;;;6.80;;
41305;SDS011;27051;50.376;19.152;2023-05-03T12:40:15;19.30;;;8.30;;
41305;SDS011;27051;50.376;19.152;2023-05-03T12:42:43;16.50;;;7.80;;
41305;SDS011;27051;50.376;19.152;2023-05-03T12:45:12;13.40;;;7.10;;
41305;SDS011;27051;50.376;19.152;2023-05-03T12:47:39;19.80;;;9.00;;
41305;SDS011;27051;50.376;19.152;2023-05-03T12:50:06;18.70;;;9.30;;
41305;SDS011;27051;50.376;19.152;2023-05-03T12:52:33;16.80;;;7.60;;
41305;SDS011;27051;50.376;19.152;2023-05-03T12:55:00;16.20;;;7.20;;
41305;SDS011;27051;50.376;19.152;2023-05-03T12:57:27;18.20;;;8.20;;
41305;SDS011;27051;50.376;19.152;2023-05-03T12:59:53;17.20;;;8.50;;
41305;SDS011;27051;50.376;19.152;2023-05-03T13:02:20;15.10;;;6.90;;
41305;SDS011;27051;50.376;19.152;2023-05-03T13:04:47;17.30;;;7.40;;
41305;SDS011;27051;50.376;19.152;2023-05-03T13:07:15;13.60;;;6.00;;
41305;SDS011;27051;50.376;19.152;2023-05-03T13:09:43;14.90;;;6.10;;
41305;SDS011;27051;50.376;19.152;2023-05-03T13:12:10;13.00;;;6.70;;
41305;SDS011;27051;50.376;19.152;2023-05-03T13:14:37;14.10;;;6.70;;
41305;SDS011;27051;50.376;19.152;2023-05-03T13:17:04;18.30;;;8.50;;
41305;SDS011;27051;50.376;19.152;2023-05-03T13:19:43;27.80;;;13.10;;
41305;SDS011;27051;50.376;19.152;2023-05-03T13:22:10;18.40;;;8.50;;
41305;SDS011;27051;50.376;19.152;2023-05-03T13:24:37;13.70;;;6.50;;
41305;SDS011;27051;50.376;19.152;2023-05-03T13:27:04;16.10;;;6.40;;
41305;SDS011;27051;50.376;19.152;2023-05-03T13:29:30;13.40;;;6.50;;
41305;SDS011;27051;50.376;19.152;2023-05-03T13:31:57;10.50;;;5.50;;
41305;SDS011;27051;50.376;19.152;2023-05-03T13:34:24;12.80;;;5.60;;
41305;SDS011;27051;50.376;19.152;2023-05-03T13:36:51;13.00;;;5.50;;
41305;SDS011;27051;50.376;19.152;2023-05-03T13:39:18;11.50;;;5.40;;
41305;SDS011;27051;50.376;19.152;2023-05-03T13:41:45;13.60;;;5.70;;
41305;SDS011;27051;50.376;19.152;2023-05-03T13:44:11;15.00;;;6.70;;
41305;SDS011;27051;50.376;19.152;2023-05-03T13:46:38;11.40;;;6.10;;
41305;SDS011;27051;50.376;19.152;2023-05-03T13:49:05;12.00;;;6.00;;
41305;SDS011;27051;50.376;19.152;2023-05-03T13:51:33;8.10;;;5.30;;
41305;SDS011;27051;50.376;19.152;2023-05-03T13:54:01;11.20;;;5.40;;
41305;SDS011;27051;50.376;19.152;2023-05-03T13:56:30;9.70;;;5.40;;
41305;SDS011;27051;50.376;19.152;2023-05-03T13:58:57;12.20;;;5.70;;
41305;SDS011;27051;50.376;19.152;2023-05-03T14:01:24;11.10;;;5.70;;
41305;SDS011;27051;50.376;19.152;2023-05-03T14:03:51;11.70;;;5.70;;
41305;SDS011;27051;50.376;19.152;2023-05-03T14:06:19;11.20;;;5.90;;
41305;SDS011;27051;50.376;19.152;2023-05-03T14:08:46;11.60;;;5.80;;
41305;SDS011;27051;50.376;19.152;2023-05-03T14:11:14;7.70;;;5.10;;
41305;SDS011;27051;50.376;19.152;2023-05-03T14:13:41;10.60;;;5.80;;
41305;SDS011;27051;50.376;19.152;2023-05-03T14:16:15;10.70;;;5.90;;
41305;SDS011;27051;50.376;19.152;2023-05-03T14:18:43;10.60;;;5.40;;
41305;SDS011;27051;50.376;19.152;2023-05-03T14:21:09;12.80;;;5.80;;
41305;SDS011;27051;50.376;19.152;2023-05-03T14:23:36;14.70;;;5.50;;
41305;SDS011;27051;50.376;19.152;2023-05-03T14:26:03;11.30;;;5.80;;
41305;SDS011;27051;50.376;19.152;2023-05-03T14:28:29;11.50;;;5.40;;
41305;SDS011;27051;50.376;19.152;2023-05-03T14:30:57;11.60;;;5.90;;
41305;SDS011;27051;50.376;19.152;2023-05-03T14:33:23;11.20;;;4.80;;
41305;SDS011;27051;50.376;19.152;2023-05-03T14:35:50;10.20;;;4.60;;
41305;SDS011;27051;50.376;19.152;2023-05-03T14:38:17;7.60;;;4.40;;
41305;SDS011;27051;50.376;19.152;2023-05-03T14:40:43;10.30;;;4.50;;